Hayward, California
Current Conditions -  °F | °C
As of 4:54 AM on Tuesday 21 Oct 2014 (Local Time) from KHWD Reporting Station
Clear Clear  
Wind Chill: 52°   Ceiling: Unl
Heat Index: 52°   Visibility: 10mi
Dew Point: 52°   Wind: 7mph
Humidity: 100%   Direction: 50°NE
Pressure: 30.08"   Gusts: NA
Location:  37.67°N, 122.08°W
Report Text: KHWD 211154Z AUTO 05006KT 10SM CLR 11/11 A3008 RMK AO2 SLP197 T01110111 10161 20111 53003
Loading
Personal Weather Stations






























Interactive Weather Map
Tropical Storm Tracking
New forecast layout! Learn more

10-Day Weather Forecast

Advertisements
Track Severe Weather on mobile